Mabscott, West Virginia
Current Conditions -  °F | °C
As of 9:51 AM on Saturday 22 Nov 2014 (Local Time) from KBKW Reporting Station
Clear Clear  
Wind Chill: 38°   Ceiling: Unl
Heat Index: 38°   Visibility: 10mi
Dew Point: 17°   Wind: 3mph
Humidity: 43%   Direction: 70°ENE
Pressure: 30.38"   Gusts: NA
Location:  37.77°N, 81.21°W
Report Text: KBKW 221451Z AUTO 07003KT 10SM CLR 03/M08 A3038 RMK AO2 SLP317 T00331083 53001
Loading
Personal Weather Stations






























Interactive Weather Map New forecast layout! Learn more

10-Day Weather Forecast

Advertisements
Track Severe Weather on mobile